createdAt,value
2023-11-19T00:04:07.637Z,99.90
2023-11-19T00:09:10.731Z,99.90
2023-11-19T00:14:14.918Z,99.90
2023-11-19T00:19:19.500Z,99.90
2023-11-19T00:24:22.657Z,99.90
2023-11-19T00:29:25.999Z,99.90
2023-11-19T00:34:30.678Z,99.90
2023-11-19T00:39:33.901Z,99.90
2023-11-19T00:44:36.998Z,99.90
2023-11-19T00:49:41.624Z,99.90
2023-11-19T00:54:44.816Z,99.90
2023-11-19T00:59:48.599Z,99.80
2023-11-19T01:04:53.503Z,97.80
2023-11-19T01:09:56.690Z,98.50
2023-11-19T01:14:59.831Z,99.40
2023-11-19T01:20:07.084Z,99.80
2023-11-19T01:25:10.592Z,99.90
2023-11-19T01:30:14.938Z,98.40
2023-11-19T01:35:19.425Z,97.40
2023-11-19T01:40:23.585Z,96.10
2023-11-19T01:45:31.787Z,95.60
2023-11-19T01:50:36.793Z,96.10
2023-11-19T01:55:39.965Z,96.70
2023-11-19T02:00:44.168Z,96.80
2023-11-19T02:05:52.000Z,97.10
2023-11-19T02:10:56.171Z,97.20
2023-11-19T02:16:00.751Z,99.10
2023-11-19T02:21:06.451Z,99.90
2023-11-19T02:26:16.288Z,99.90
2023-11-19T02:31:21.418Z,99.90
2023-11-19T02:36:24.627Z,99.90
2023-11-19T02:41:27.785Z,99.90
2023-11-19T02:46:33.273Z,99.90
2023-11-19T02:51:36.983Z,99.90
2023-11-19T02:56:40.968Z,99.90
2023-11-19T03:01:51.358Z,99.90
2023-11-19T03:06:54.755Z,99.90
2023-11-19T03:11:57.944Z,99.90
2023-11-19T03:17:02.584Z,99.90
2023-11-19T03:22:06.168Z,99.90
2023-11-19T03:27:09.298Z,99.90
2023-11-19T03:32:14.181Z,99.90
2023-11-19T03:37:18.602Z,99.90
2023-11-19T03:42:21.786Z,99.90
2023-11-19T03:47:26.361Z,99.90
2023-11-19T03:52:29.470Z,99.90
2023-11-19T03:57:32.742Z,99.90
2023-11-19T04:02:37.208Z,99.90
2023-11-19T04:07:40.307Z,99.90
2023-11-19T04:12:43.891Z,99.90
2023-11-19T04:17:48.397Z,99.90
2023-11-19T04:22:52.415Z,99.90
2023-11-19T04:27:55.552Z,99.90
2023-11-19T04:33:00.215Z,99.90
2023-11-19T04:38:03.361Z,99.90
2023-11-19T04:43:06.478Z,99.90
2023-11-19T04:48:11.334Z,99.90
2023-11-19T04:53:16.833Z,99.90
2023-11-19T04:58:20.163Z,99.90
2023-11-19T05:03:24.833Z,99.90
2023-11-19T05:08:28.347Z,99.90
2023-11-19T05:13:31.478Z,99.90
2023-11-19T05:18:35.938Z,99.90
2023-11-19T05:23:39.082Z,99.90
2023-11-19T05:28:42.192Z,99.90
2023-11-19T05:33:46.850Z,99.90
2023-11-19T05:38:49.978Z,99.90
2023-11-19T05:43:53.200Z,99.90
2023-11-19T05:48:57.663Z,99.90
2023-11-19T05:54:00.957Z,99.90
2023-11-19T05:59:08.210Z,99.90
2023-11-19T06:04:12.865Z,99.90
2023-11-19T06:09:15.975Z,99.90
2023-11-19T06:14:19.154Z,99.90
2023-11-19T06:19:27.335Z,99.90
2023-11-19T06:24:31.730Z,99.90
2023-11-19T06:29:34.859Z,99.90
2023-11-19T06:34:39.758Z,99.90
2023-11-19T06:39:42.979Z,99.90
2023-11-19T06:44:46.442Z,99.90
2023-11-19T06:49:51.022Z,99.90
2023-11-19T06:55:07.777Z,99.90
2023-11-19T07:00:12.831Z,99.90
2023-11-19T07:05:17.351Z,99.90
2023-11-19T07:10:20.714Z,99.90
2023-11-19T07:15:23.935Z,99.90
2023-11-19T07:20:29.026Z,99.90
2023-11-19T07:25:32.315Z,99.90
2023-11-19T07:30:35.385Z,99.90
2023-11-19T07:35:39.941Z,99.90
2023-11-19T07:40:56.715Z,99.90
2023-11-19T07:46:00.722Z,99.90
2023-11-19T07:51:05.290Z,99.90
2023-11-19T07:56:09.281Z,99.90
2023-11-19T08:01:12.390Z,99.90
2023-11-19T08:06:16.931Z,99.90
2023-11-19T08:11:21.025Z,99.90
2023-11-19T08:16:24.391Z,99.90
2023-11-19T08:21:29.248Z,99.90
2023-11-19T08:26:32.512Z,99.90
2023-11-19T08:31:35.664Z,99.90
2023-11-19T08:36:40.106Z,99.90
2023-11-19T08:41:43.258Z,99.90
2023-11-19T08:46:49.733Z,99.90
2023-11-19T08:51:54.219Z,99.90
2023-11-19T08:56:57.306Z,99.90
2023-11-19T09:02:00.400Z,99.90
2023-11-19T09:07:05.410Z,99.90
2023-11-19T09:12:09.077Z,99.90
2023-11-19T09:17:12.185Z,99.90
2023-11-19T09:22:17.440Z,99.90
2023-11-19T09:27:21.756Z,99.90
2023-11-19T09:32:24.894Z,99.90
2023-11-19T09:37:29.431Z,99.90
2023-11-19T09:42:33.714Z,99.90
2023-11-19T09:47:36.950Z,99.90
2023-11-19T09:52:41.552Z,99.90
2023-11-19T09:57:45.974Z,99.90
2023-11-19T10:02:49.437Z,99.90
2023-11-19T10:07:54.174Z,99.90
2023-11-19T10:12:58.099Z,99.90
2023-11-19T10:18:01.674Z,99.90
2023-11-19T10:23:06.237Z,99.90
2023-11-19T10:28:09.357Z,99.90
2023-11-19T10:33:17.013Z,99.90
2023-11-19T10:38:21.925Z,99.90
2023-11-19T10:43:25.927Z,99.90
2023-11-19T10:48:29.221Z,99.90
2023-11-19T10:53:37.081Z,99.90
2023-11-19T10:58:46.133Z,99.90
2023-11-19T11:03:52.526Z,99.90
2023-11-19T11:08:57.707Z,99.90
2023-11-19T11:14:02.047Z,99.90
2023-11-19T11:19:06.029Z,99.90
2023-11-19T11:24:23.510Z,99.90
2023-11-19T11:29:29.399Z,99.90
2023-11-19T11:34:51.005Z,99.90
2023-11-19T11:39:56.001Z,99.90
2023-11-19T11:45:05.530Z,99.90
2023-11-19T11:50:12.503Z,99.90
2023-11-19T11:55:18.059Z,99.90
2023-11-19T12:00:24.997Z,99.90
2023-11-19T12:05:28.830Z,99.90
2023-11-19T12:10:34.270Z,99.90
2023-11-19T12:16:10.808Z,99.90
2023-11-19T12:21:13.913Z,99.90
2023-11-19T12:26:40.585Z,99.90
2023-11-19T12:31:46.757Z,99.90
2023-11-19T12:36:49.950Z,99.90
2023-11-19T12:41:55.639Z,99.90
2023-11-19T12:47:07.572Z,99.90
2023-11-19T12:52:14.509Z,99.90
2023-11-19T12:57:19.941Z,99.90
2023-11-19T13:02:23.091Z,99.90
2023-11-19T13:07:26.405Z,99.90
2023-11-19T13:12:30.972Z,99.90
2023-11-19T13:17:34.269Z,99.90
2023-11-19T13:22:37.444Z,99.90
2023-11-19T13:27:41.936Z,99.90
2023-11-19T13:32:45.920Z,99.90
2023-11-19T13:37:49.143Z,99.90
2023-11-19T13:42:53.601Z,99.90
2023-11-19T13:47:56.793Z,99.90
2023-11-19T13:52:59.859Z,99.90
2023-11-19T13:58:04.363Z,99.90
2023-11-19T14:03:07.718Z,99.90
2023-11-19T14:08:19.845Z,99.90
2023-11-19T14:13:30.384Z,99.90
2023-11-19T14:18:36.186Z,99.90
2023-11-19T14:23:39.594Z,99.90
2023-11-19T14:33:50.601Z,99.90
2023-11-19T14:38:53.920Z,99.90
2023-11-19T14:43:58.408Z,99.90
2023-11-19T14:49:01.596Z,99.90
2023-11-19T14:54:05.205Z,99.90
2023-11-19T14:59:09.750Z,99.90
2023-11-19T15:04:13.010Z,99.90
2023-11-19T15:09:18.560Z,99.90
2023-11-19T15:14:23.197Z,99.90
2023-11-19T15:19:26.377Z,99.90
2023-11-19T15:24:29.861Z,99.90
2023-11-19T15:29:35.469Z,99.90
2023-11-19T15:34:39.294Z,99.90
2023-11-19T15:39:42.618Z,99.90
2023-11-19T15:44:47.152Z,99.90
2023-11-19T15:49:50.633Z,99.90
2023-11-19T15:54:53.713Z,99.90
2023-11-19T15:59:58.157Z,99.90
2023-11-19T16:05:01.498Z,99.90
2023-11-19T16:10:05.722Z,99.90
2023-11-19T16:15:11.051Z,99.90
2023-11-19T16:20:14.692Z,99.90
2023-11-19T16:25:18.140Z,99.90
2023-11-19T16:30:23.495Z,99.90
2023-11-19T16:35:27.174Z,99.90
2023-11-19T16:40:30.290Z,99.90
2023-11-19T16:45:35.224Z,99.90
2023-11-19T16:50:38.730Z,99.90
2023-11-19T16:55:41.837Z,99.90
2023-11-19T17:00:46.286Z,99.90
2023-11-19T17:05:49.373Z,99.90
2023-11-19T17:10:52.597Z,99.90
2023-11-19T17:15:57.351Z,99.90
2023-11-19T17:21:01.533Z,99.90
2023-11-19T17:26:06.813Z,99.90
2023-11-19T17:31:11.886Z,99.90
2023-11-19T17:36:15.025Z,99.90
2023-11-19T17:41:18.077Z,99.90
2023-11-19T17:46:22.535Z,99.90
2023-11-19T17:51:25.899Z,99.90
2023-11-19T17:56:29.488Z,99.90
2023-11-19T18:01:34.006Z,99.90
2023-11-19T18:06:38.699Z,99.90
2023-11-19T18:11:41.879Z,99.90
2023-11-19T18:16:46.376Z,99.90
2023-11-19T18:21:50.051Z,99.90
2023-11-19T18:26:53.400Z,99.90
2023-11-19T18:31:57.933Z,99.90
2023-11-19T18:37:01.075Z,99.90
2023-11-19T18:42:04.400Z,99.90
2023-11-19T18:47:09.308Z,99.90
2023-11-19T18:52:12.408Z,99.90
2023-11-19T18:57:15.571Z,99.90
2023-11-19T19:02:20.259Z,99.90
2023-11-19T19:07:24.127Z,99.90
2023-11-19T19:12:29.430Z,99.90
2023-11-19T19:17:34.048Z,99.90
2023-11-19T19:22:37.275Z,99.90
2023-11-19T19:27:40.394Z,99.90
2023-11-19T19:32:45.897Z,99.90
2023-11-19T19:37:49.231Z,99.90
2023-11-19T19:42:52.347Z,99.90
2023-11-19T19:47:57.937Z,99.90
2023-11-19T19:53:01.088Z,99.90
2023-11-19T19:58:05.101Z,99.90
2023-11-19T20:03:09.752Z,99.90
2023-11-19T20:08:12.967Z,99.90
2023-11-19T20:13:17.079Z,99.90
2023-11-19T20:18:21.726Z,99.90
2023-11-19T20:23:24.817Z,99.90
2023-11-19T20:28:27.998Z,99.90
2023-11-19T20:33:32.591Z,99.90
2023-11-19T20:38:37.499Z,99.90
2023-11-19T20:43:40.582Z,99.90
2023-11-19T20:48:45.177Z,99.90
2023-11-19T20:53:48.448Z,99.90
2023-11-19T20:58:51.514Z,99.90
2023-11-19T21:03:57.025Z,99.90
2023-11-19T21:09:00.305Z,99.90
2023-11-19T21:14:04.603Z,99.90
2023-11-19T21:19:09.769Z,99.90
2023-11-19T21:24:13.240Z,99.90
2023-11-19T21:29:16.396Z,99.90
2023-11-19T21:34:21.242Z,99.90
2023-11-19T21:39:24.417Z,99.90
2023-11-19T21:44:27.628Z,99.90
2023-11-19T21:49:32.296Z,99.90
2023-11-19T21:54:38.754Z,99.90
2023-11-19T21:59:42.260Z,99.90
2023-11-19T22:04:46.752Z,99.90
2023-11-19T22:09:49.945Z,99.90
2023-11-19T22:14:53.082Z,99.90
2023-11-19T22:19:57.590Z,99.90
2023-11-19T22:25:01.011Z,99.90
2023-11-19T22:30:04.256Z,99.90
2023-11-19T22:35:09.466Z,99.90
2023-11-19T22:40:13.853Z,99.90
2023-11-19T22:45:18.092Z,99.90
2023-11-19T22:50:22.608Z,99.90
2023-11-19T22:55:25.736Z,99.90
2023-11-19T23:00:30.166Z,99.90
2023-11-19T23:05:37.025Z,99.90
2023-11-19T23:10:40.237Z,99.90
2023-11-19T23:15:44.197Z,99.90
2023-11-19T23:20:48.894Z,99.90
2023-11-19T23:25:52.066Z,99.90
2023-11-19T23:30:55.168Z,99.90
2023-11-19T23:35:59.877Z,99.90
2023-11-19T23:41:03.020Z,99.90
2023-11-19T23:46:06.876Z,99.90
2023-11-19T23:51:11.466Z,99.90
2023-11-19T23:56:14.716Z,99.90
